sensor_id;sensor_type;location;lat;lon;timestamp;P1;durP1;ratioP1;P2;durP2;ratioP2
43626;SDS011;29217;52.586;13.442;2024-03-25T00:01:35;4.10;;;2.80;;
43626;SDS011;29217;52.586;13.442;2024-03-25T00:04:01;5.93;;;3.05;;
43626;SDS011;29217;52.586;13.442;2024-03-25T00:06:26;4.45;;;3.13;;
43626;SDS011;29217;52.586;13.442;2024-03-25T00:08:52;5.55;;;3.35;;
43626;SDS011;29217;52.586;13.442;2024-03-25T00:11:17;8.80;;;3.28;;
43626;SDS011;29217;52.586;13.442;2024-03-25T00:13:43;5.88;;;2.80;;
43626;SDS011;29217;52.586;13.442;2024-03-25T00:16:08;6.05;;;3.35;;
43626;SDS011;29217;52.586;13.442;2024-03-25T00:18:34;5.22;;;3.22;;
43626;SDS011;29217;52.586;13.442;2024-03-25T00:21:00;3.97;;;2.55;;
43626;SDS011;29217;52.586;13.442;2024-03-25T00:23:25;7.97;;;3.33;;
43626;SDS011;29217;52.586;13.442;2024-03-25T00:25:51;4.40;;;2.83;;
43626;SDS011;29217;52.586;13.442;2024-03-25T00:28:17;5.30;;;3.20;;
43626;SDS011;29217;52.586;13.442;2024-03-25T00:30:43;4.90;;;3.25;;
43626;SDS011;29217;52.586;13.442;2024-03-25T00:33:09;4.72;;;3.10;;
43626;SDS011;29217;52.586;13.442;2024-03-25T00:35:36;6.60;;;3.63;;
43626;SDS011;29217;52.586;13.442;2024-03-25T00:38:01;4.38;;;2.75;;
43626;SDS011;29217;52.586;13.442;2024-03-25T00:40:27;6.60;;;3.33;;
43626;SDS011;29217;52.586;13.442;2024-03-25T00:42:53;5.65;;;3.20;;
43626;SDS011;29217;52.586;13.442;2024-03-25T00:45:18;5.35;;;3.17;;
43626;SDS011;29217;52.586;13.442;2024-03-25T00:47:44;7.43;;;3.60;;
43626;SDS011;29217;52.586;13.442;2024-03-25T00:50:09;8.30;;;3.65;;
43626;SDS011;29217;52.586;13.442;2024-03-25T00:52:35;5.65;;;3.13;;
43626;SDS011;29217;52.586;13.442;2024-03-25T00:55:01;4.90;;;3.00;;
43626;SDS011;29217;52.586;13.442;2024-03-25T00:57:27;6.45;;;3.65;;
43626;SDS011;29217;52.586;13.442;2024-03-25T00:59:54;6.60;;;3.28;;
43626;SDS011;29217;52.586;13.442;2024-03-25T01:02:20;6.35;;;3.25;;
43626;SDS011;29217;52.586;13.442;2024-03-25T01:04:46;6.50;;;3.75;;
43626;SDS011;29217;52.586;13.442;2024-03-25T01:07:12;9.35;;;3.45;;
43626;SDS011;29217;52.586;13.442;2024-03-25T01:09:37;6.13;;;3.30;;
43626;SDS011;29217;52.586;13.442;2024-03-25T01:12:03;6.53;;;3.30;;
43626;SDS011;29217;52.586;13.442;2024-03-25T01:14:29;6.47;;;3.50;;
43626;SDS011;29217;52.586;13.442;2024-03-25T01:16:54;5.15;;;3.25;;
43626;SDS011;29217;52.586;13.442;2024-03-25T01:19:21;7.03;;;3.75;;
43626;SDS011;29217;52.586;13.442;2024-03-25T01:21:47;6.38;;;3.70;;
43626;SDS011;29217;52.586;13.442;2024-03-25T01:24:12;8.52;;;4.15;;
43626;SDS011;29217;52.586;13.442;2024-03-25T01:26:38;11.70;;;5.05;;
43626;SDS011;29217;52.586;13.442;2024-03-25T01:29:03;8.05;;;3.97;;
43626;SDS011;29217;52.586;13.442;2024-03-25T01:31:29;9.57;;;4.10;;
43626;SDS011;29217;52.586;13.442;2024-03-25T01:33:55;8.80;;;4.50;;
43626;SDS011;29217;52.586;13.442;2024-03-25T01:36:20;9.00;;;4.55;;
43626;SDS011;29217;52.586;13.442;2024-03-25T01:38:46;10.52;;;4.50;;
43626;SDS011;29217;52.586;13.442;2024-03-25T01:41:12;9.60;;;4.80;;
43626;SDS011;29217;52.586;13.442;2024-03-25T01:43:40;9.80;;;4.72;;
43626;SDS011;29217;52.586;13.442;2024-03-25T01:46:06;10.38;;;4.25;;
43626;SDS011;29217;52.586;13.442;2024-03-25T01:48:32;11.73;;;4.65;;
43626;SDS011;29217;52.586;13.442;2024-03-25T01:50:58;9.10;;;5.15;;
43626;SDS011;29217;52.586;13.442;2024-03-25T01:53:24;11.95;;;5.32;;
43626;SDS011;29217;52.586;13.442;2024-03-25T01:55:51;11.95;;;4.75;;
43626;SDS011;29217;52.586;13.442;2024-03-25T01:58:20;8.52;;;4.63;;
43626;SDS011;29217;52.586;13.442;2024-03-25T02:00:46;9.80;;;4.82;;
43626;SDS011;29217;52.586;13.442;2024-03-25T02:03:12;9.93;;;4.95;;
43626;SDS011;29217;52.586;13.442;2024-03-25T02:05:39;8.32;;;4.30;;
43626;SDS011;29217;52.586;13.442;2024-03-25T02:08:04;7.35;;;3.88;;
43626;SDS011;29217;52.586;13.442;2024-03-25T02:10:31;7.80;;;4.75;;
43626;SDS011;29217;52.586;13.442;2024-03-25T02:12:57;6.97;;;3.97;;
43626;SDS011;29217;52.586;13.442;2024-03-25T02:15:24;6.72;;;3.38;;
43626;SDS011;29217;52.586;13.442;2024-03-25T02:17:51;5.18;;;2.83;;
43626;SDS011;29217;52.586;13.442;2024-03-25T02:20:17;6.18;;;3.40;;
43626;SDS011;29217;52.586;13.442;2024-03-25T02:22:43;5.97;;;3.60;;
43626;SDS011;29217;52.586;13.442;2024-03-25T02:25:09;5.13;;;2.70;;
43626;SDS011;29217;52.586;13.442;2024-03-25T02:27:36;4.72;;;3.00;;
43626;SDS011;29217;52.586;13.442;2024-03-25T02:32:30;6.00;;;2.78;;
43626;SDS011;29217;52.586;13.442;2024-03-25T02:34:56;2.88;;;2.13;;
43626;SDS011;29217;52.586;13.442;2024-03-25T02:37:22;4.45;;;2.42;;
43626;SDS011;29217;52.586;13.442;2024-03-25T02:39:48;3.60;;;2.10;;
43626;SDS011;29217;52.586;13.442;2024-03-25T02:42:14;3.65;;;2.00;;
43626;SDS011;29217;52.586;13.442;2024-03-25T02:44:39;3.47;;;1.98;;
43626;SDS011;29217;52.586;13.442;2024-03-25T02:47:08;2.38;;;1.70;;
43626;SDS011;29217;52.586;13.442;2024-03-25T02:49:34;2.60;;;2.03;;
43626;SDS011;29217;52.586;13.442;2024-03-25T02:52:00;2.85;;;2.00;;
43626;SDS011;29217;52.586;13.442;2024-03-25T02:54:26;3.90;;;2.08;;
43626;SDS011;29217;52.586;13.442;2024-03-25T02:56:52;3.00;;;1.92;;
43626;SDS011;29217;52.586;13.442;2024-03-25T02:59:17;4.88;;;2.25;;
43626;SDS011;29217;52.586;13.442;2024-03-25T03:01:43;3.50;;;2.30;;
43626;SDS011;29217;52.586;13.442;2024-03-25T03:04:09;2.88;;;1.90;;
43626;SDS011;29217;52.586;13.442;2024-03-25T03:06:34;2.90;;;1.83;;
43626;SDS011;29217;52.586;13.442;2024-03-25T03:09:00;6.22;;;2.20;;
43626;SDS011;29217;52.586;13.442;2024-03-25T03:11:25;5.53;;;2.53;;
43626;SDS011;29217;52.586;13.442;2024-03-25T03:13:51;3.72;;;2.08;;
43626;SDS011;29217;52.586;13.442;2024-03-25T03:16:16;3.95;;;2.33;;
43626;SDS011;29217;52.586;13.442;2024-03-25T03:18:42;4.50;;;2.05;;
43626;SDS011;29217;52.586;13.442;2024-03-25T03:21:07;4.25;;;2.47;;
43626;SDS011;29217;52.586;13.442;2024-03-25T03:23:33;3.85;;;2.30;;
43626;SDS011;29217;52.586;13.442;2024-03-25T03:25:58;4.65;;;2.50;;
43626;SDS011;29217;52.586;13.442;2024-03-25T03:28:25;5.40;;;2.70;;
43626;SDS011;29217;52.586;13.442;2024-03-25T03:30:50;5.35;;;2.58;;
43626;SDS011;29217;52.586;13.442;2024-03-25T03:33:16;6.35;;;3.22;;
43626;SDS011;29217;52.586;13.442;2024-03-25T03:35:42;4.93;;;2.72;;
43626;SDS011;29217;52.586;13.442;2024-03-25T03:38:08;4.57;;;2.35;;
43626;SDS011;29217;52.586;13.442;2024-03-25T03:40:33;4.60;;;2.58;;
43626;SDS011;29217;52.586;13.442;2024-03-25T03:42:59;9.88;;;3.45;;
43626;SDS011;29217;52.586;13.442;2024-03-25T03:45:24;4.60;;;2.35;;
43626;SDS011;29217;52.586;13.442;2024-03-25T03:47:50;6.13;;;2.47;;
43626;SDS011;29217;52.586;13.442;2024-03-25T03:50:16;7.80;;;2.97;;
43626;SDS011;29217;52.586;13.442;2024-03-25T03:52:42;5.70;;;3.17;;
43626;SDS011;29217;52.586;13.442;2024-03-25T03:55:07;6.28;;;3.10;;
43626;SDS011;29217;52.586;13.442;2024-03-25T03:57:33;5.40;;;3.10;;
43626;SDS011;29217;52.586;13.442;2024-03-25T03:59:58;6.68;;;2.70;;
43626;SDS011;29217;52.586;13.442;2024-03-25T04:02:25;5.10;;;2.90;;
43626;SDS011;29217;52.586;13.442;2024-03-25T04:04:53;7.85;;;3.45;;
43626;SDS011;29217;52.586;13.442;2024-03-25T04:07:19;11.30;;;3.08;;
43626;SDS011;29217;52.586;13.442;2024-03-25T04:09:45;4.38;;;2.35;;
43626;SDS011;29217;52.586;13.442;2024-03-25T04:12:11;9.20;;;3.13;;
43626;SDS011;29217;52.586;13.442;2024-03-25T04:14:36;3.85;;;2.53;;
43626;SDS011;29217;52.586;13.442;2024-03-25T04:17:03;6.93;;;2.83;;
43626;SDS011;29217;52.586;13.442;2024-03-25T04:19:29;5.18;;;2.95;;
43626;SDS011;29217;52.586;13.442;2024-03-25T04:21:55;6.28;;;2.70;;
43626;SDS011;29217;52.586;13.442;2024-03-25T04:24:21;7.47;;;2.80;;
43626;SDS011;29217;52.586;13.442;2024-03-25T04:26:46;4.82;;;2.08;;
43626;SDS011;29217;52.586;13.442;2024-03-25T04:29:13;5.00;;;2.40;;
43626;SDS011;29217;52.586;13.442;2024-03-25T04:31:40;5.10;;;2.63;;
43626;SDS011;29217;52.586;13.442;2024-03-25T04:34:05;4.18;;;2.30;;
43626;SDS011;29217;52.586;13.442;2024-03-25T04:36:31;5.32;;;2.35;;
43626;SDS011;29217;52.586;13.442;2024-03-25T04:38:56;4.95;;;2.33;;
43626;SDS011;29217;52.586;13.442;2024-03-25T04:41:22;4.82;;;2.13;;
43626;SDS011;29217;52.586;13.442;2024-03-25T04:43:48;8.20;;;2.38;;
43626;SDS011;29217;52.586;13.442;2024-03-25T04:46:13;2.95;;;1.73;;
43626;SDS011;29217;52.586;13.442;2024-03-25T04:48:39;5.22;;;2.33;;
43626;SDS011;29217;52.586;13.442;2024-03-25T04:51:05;5.63;;;2.30;;
43626;SDS011;29217;52.586;13.442;2024-03-25T04:53:31;8.48;;;2.30;;
43626;SDS011;29217;52.586;13.442;2024-03-25T04:55:57;6.57;;;2.55;;
43626;SDS011;29217;52.586;13.442;2024-03-25T04:58:22;5.10;;;2.70;;
43626;SDS011;29217;52.586;13.442;2024-03-25T05:00:48;9.55;;;2.70;;
43626;SDS011;29217;52.586;13.442;2024-03-25T05:03:13;8.38;;;3.00;;
43626;SDS011;29217;52.586;13.442;2024-03-25T05:05:39;8.85;;;2.95;;
43626;SDS011;29217;52.586;13.442;2024-03-25T05:08:04;5.97;;;2.78;;
43626;SDS011;29217;52.586;13.442;2024-03-25T05:10:30;5.70;;;2.83;;
43626;SDS011;29217;52.586;13.442;2024-03-25T05:12:56;7.50;;;3.13;;
43626;SDS011;29217;52.586;13.442;2024-03-25T05:15:22;6.20;;;2.75;;
43626;SDS011;29217;52.586;13.442;2024-03-25T05:17:47;6.88;;;3.13;;
43626;SDS011;29217;52.586;13.442;2024-03-25T05:20:13;6.90;;;3.17;;
43626;SDS011;29217;52.586;13.442;2024-03-25T05:22:39;6.55;;;3.40;;
43626;SDS011;29217;52.586;13.442;2024-03-25T05:25:05;9.82;;;3.30;;
43626;SDS011;29217;52.586;13.442;2024-03-25T05:27:30;10.25;;;3.47;;
43626;SDS011;29217;52.586;13.442;2024-03-25T05:29:56;5.50;;;2.95;;
43626;SDS011;29217;52.586;13.442;2024-03-25T05:32:22;5.40;;;2.67;;
43626;SDS011;29217;52.586;13.442;2024-03-25T05:34:47;5.03;;;3.13;;
43626;SDS011;29217;52.586;13.442;2024-03-25T05:37:13;10.13;;;3.05;;
43626;SDS011;29217;52.586;13.442;2024-03-25T05:39:39;6.30;;;2.80;;
43626;SDS011;29217;52.586;13.442;2024-03-25T05:42:05;4.35;;;2.67;;
43626;SDS011;29217;52.586;13.442;2024-03-25T05:44:30;6.22;;;2.92;;
43626;SDS011;29217;52.586;13.442;2024-03-25T05:46:56;5.47;;;2.20;;
43626;SDS011;29217;52.586;13.442;2024-03-25T05:49:22;9.00;;;3.20;;
43626;SDS011;29217;52.586;13.442;2024-03-25T05:51:48;5.47;;;2.33;;
43626;SDS011;29217;52.586;13.442;2024-03-25T05:54:13;7.13;;;3.25;;
43626;SDS011;29217;52.586;13.442;2024-03-25T05:56:39;7.88;;;3.03;;
43626;SDS011;29217;52.586;13.442;2024-03-25T05:59:05;5.93;;;2.70;;
43626;SDS011;29217;52.586;13.442;2024-03-25T06:01:30;10.88;;;3.20;;
43626;SDS011;29217;52.586;13.442;2024-03-25T06:03:56;6.43;;;3.13;;
43626;SDS011;29217;52.586;13.442;2024-03-25T06:06:22;5.45;;;2.85;;
43626;SDS011;29217;52.586;13.442;2024-03-25T06:08:48;8.35;;;2.90;;
43626;SDS011;29217;52.586;13.442;2024-03-25T06:11:15;5.70;;;2.70;;
43626;SDS011;29217;52.586;13.442;2024-03-25T06:13:41;10.63;;;3.25;;
43626;SDS011;29217;52.586;13.442;2024-03-25T06:16:06;9.63;;;3.65;;
43626;SDS011;29217;52.586;13.442;2024-03-25T06:18:32;7.70;;;3.35;;
43626;SDS011;29217;52.586;13.442;2024-03-25T06:20:57;8.88;;;3.70;;
43626;SDS011;29217;52.586;13.442;2024-03-25T06:25:50;4.70;;;2.97;;
43626;SDS011;29217;52.586;13.442;2024-03-25T06:28:17;13.15;;;3.13;;
43626;SDS011;29217;52.586;13.442;2024-03-25T06:30:42;4.82;;;2.90;;
43626;SDS011;29217;52.586;13.442;2024-03-25T06:33:28;4.50;;;2.63;;
43626;SDS011;29217;52.586;13.442;2024-03-25T06:36:12;11.20;;;3.13;;
43626;SDS011;29217;52.586;13.442;2024-03-25T06:38:37;8.02;;;3.88;;
43626;SDS011;29217;52.586;13.442;2024-03-25T06:41:03;4.85;;;2.58;;
43626;SDS011;29217;52.586;13.442;2024-03-25T06:43:28;6.90;;;2.83;;
43626;SDS011;29217;52.586;13.442;2024-03-25T06:45:54;11.23;;;3.15;;
43626;SDS011;29217;52.586;13.442;2024-03-25T06:48:20;5.03;;;2.72;;
43626;SDS011;29217;52.586;13.442;2024-03-25T06:50:55;6.22;;;3.00;;
43626;SDS011;29217;52.586;13.442;2024-03-25T06:53:21;4.28;;;2.80;;
43626;SDS011;29217;52.586;13.442;2024-03-25T06:55:57;4.45;;;2.50;;
43626;SDS011;29217;52.586;13.442;2024-03-25T06:58:24;6.50;;;2.67;;
43626;SDS011;29217;52.586;13.442;2024-03-25T07:00:53;11.57;;;3.58;;
43626;SDS011;29217;52.586;13.442;2024-03-25T07:03:20;7.97;;;2.60;;
43626;SDS011;29217;52.586;13.442;2024-03-25T07:05:47;9.43;;;3.17;;
43626;SDS011;29217;52.586;13.442;2024-03-25T07:08:14;5.95;;;3.05;;
43626;SDS011;29217;52.586;13.442;2024-03-25T07:10:43;6.40;;;3.30;;
43626;SDS011;29217;52.586;13.442;2024-03-25T07:13:09;7.88;;;3.00;;
43626;SDS011;29217;52.586;13.442;2024-03-25T07:15:35;7.18;;;3.00;;
43626;SDS011;29217;52.586;13.442;2024-03-25T07:18:01;6.57;;;3.70;;
43626;SDS011;29217;52.586;13.442;2024-03-25T07:20:26;8.93;;;3.10;;
43626;SDS011;29217;52.586;13.442;2024-03-25T07:22:52;8.25;;;2.63;;
43626;SDS011;29217;52.586;13.442;2024-03-25T07:25:21;4.80;;;2.70;;
43626;SDS011;29217;52.586;13.442;2024-03-25T07:27:50;4.95;;;2.47;;
43626;SDS011;29217;52.586;13.442;2024-03-25T07:30:17;5.38;;;2.83;;
43626;SDS011;29217;52.586;13.442;2024-03-25T07:32:43;5.57;;;2.53;;
43626;SDS011;29217;52.586;13.442;2024-03-25T07:35:10;6.90;;;2.35;;
43626;SDS011;29217;52.586;13.442;2024-03-25T07:37:36;4.07;;;2.55;;
43626;SDS011;29217;52.586;13.442;2024-03-25T07:40:02;10.40;;;2.47;;
43626;SDS011;29217;52.586;13.442;2024-03-25T07:42:29;6.57;;;2.50;;
43626;SDS011;29217;52.586;13.442;2024-03-25T07:44:55;6.38;;;2.65;;
43626;SDS011;29217;52.586;13.442;2024-03-25T07:47:21;7.03;;;2.55;;
43626;SDS011;29217;52.586;13.442;2024-03-25T07:49:46;5.88;;;2.70;;
43626;SDS011;29217;52.586;13.442;2024-03-25T07:52:12;3.53;;;2.40;;
43626;SDS011;29217;52.586;13.442;2024-03-25T07:54:38;5.35;;;2.00;;
43626;SDS011;29217;52.586;13.442;2024-03-25T07:57:04;3.97;;;2.45;;
43626;SDS011;29217;52.586;13.442;2024-03-25T07:59:30;4.30;;;1.98;;
43626;SDS011;29217;52.586;13.442;2024-03-25T08:01:55;2.22;;;2.03;;
43626;SDS011;29217;52.586;13.442;2024-03-25T08:04:21;4.00;;;2.38;;
43626;SDS011;29217;52.586;13.442;2024-03-25T08:06:47;4.85;;;2.20;;
43626;SDS011;29217;52.586;13.442;2024-03-25T08:09:13;11.43;;;2.72;;
43626;SDS011;29217;52.586;13.442;2024-03-25T08:11:40;3.65;;;2.28;;
43626;SDS011;29217;52.586;13.442;2024-03-25T08:14:09;7.47;;;2.53;;
43626;SDS011;29217;52.586;13.442;2024-03-25T08:16:35;4.90;;;2.33;;
43626;SDS011;29217;52.586;13.442;2024-03-25T08:19:00;6.70;;;2.47;;
43626;SDS011;29217;52.586;13.442;2024-03-25T08:21:26;7.40;;;2.35;;
43626;SDS011;29217;52.586;13.442;2024-03-25T08:23:52;4.75;;;2.50;;
43626;SDS011;29217;52.586;13.442;2024-03-25T08:26:17;7.68;;;3.40;;
43626;SDS011;29217;52.586;13.442;2024-03-25T08:28:43;8.02;;;4.07;;
43626;SDS011;29217;52.586;13.442;2024-03-25T08:31:09;5.40;;;2.92;;
43626;SDS011;29217;52.586;13.442;2024-03-25T08:33:34;6.65;;;2.95;;
43626;SDS011;29217;52.586;13.442;2024-03-25T08:36:00;4.47;;;2.50;;
43626;SDS011;29217;52.586;13.442;2024-03-25T08:38:26;5.15;;;2.92;;
43626;SDS011;29217;52.586;13.442;2024-03-25T08:40:51;9.18;;;2.63;;
43626;SDS011;29217;52.586;13.442;2024-03-25T08:43:17;7.20;;;2.85;;
43626;SDS011;29217;52.586;13.442;2024-03-25T08:45:44;10.93;;;2.85;;
43626;SDS011;29217;52.586;13.442;2024-03-25T08:48:11;6.65;;;3.50;;
43626;SDS011;29217;52.586;13.442;2024-03-25T08:50:36;4.57;;;2.85;;
43626;SDS011;29217;52.586;13.442;2024-03-25T08:53:02;7.68;;;3.13;;
43626;SDS011;29217;52.586;13.442;2024-03-25T08:55:28;4.70;;;2.80;;
43626;SDS011;29217;52.586;13.442;2024-03-25T08:57:54;10.43;;;3.13;;
43626;SDS011;29217;52.586;13.442;2024-03-25T09:00:20;8.80;;;3.42;;
43626;SDS011;29217;52.586;13.442;2024-03-25T09:02:45;5.55;;;3.47;;
43626;SDS011;29217;52.586;13.442;2024-03-25T09:05:11;10.35;;;3.10;;
43626;SDS011;29217;52.586;13.442;2024-03-25T09:07:38;7.03;;;2.72;;
43626;SDS011;29217;52.586;13.442;2024-03-25T09:10:04;8.70;;;3.17;;
43626;SDS011;29217;52.586;13.442;2024-03-25T09:12:49;6.40;;;2.70;;
43626;SDS011;29217;52.586;13.442;2024-03-25T09:15:14;5.00;;;3.00;;
43626;SDS011;29217;52.586;13.442;2024-03-25T09:17:40;9.80;;;3.30;;
43626;SDS011;29217;52.586;13.442;2024-03-25T09:20:06;6.85;;;3.30;;
43626;SDS011;29217;52.586;13.442;2024-03-25T09:22:58;5.28;;;2.85;;
43626;SDS011;29217;52.586;13.442;2024-03-25T09:25:23;9.02;;;3.17;;
43626;SDS011;29217;52.586;13.442;2024-03-25T09:27:49;8.57;;;3.05;;
43626;SDS011;29217;52.586;13.442;2024-03-25T09:30:16;4.95;;;2.83;;
43626;SDS011;29217;52.586;13.442;2024-03-25T09:32:45;8.98;;;4.03;;
43626;SDS011;29217;52.586;13.442;2024-03-25T09:35:11;8.88;;;3.40;;
43626;SDS011;29217;52.586;13.442;2024-03-25T09:37:37;7.28;;;3.40;;
43626;SDS011;29217;52.586;13.442;2024-03-25T09:40:03;7.07;;;3.30;;
43626;SDS011;29217;52.586;13.442;2024-03-25T09:42:40;5.20;;;2.47;;
43626;SDS011;29217;52.586;13.442;2024-03-25T09:45:12;4.60;;;2.65;;
43626;SDS011;29217;52.586;13.442;2024-03-25T09:47:41;5.10;;;2.70;;
43626;SDS011;29217;52.586;13.442;2024-03-25T09:50:12;6.60;;;3.05;;
43626;SDS011;29217;52.586;13.442;2024-03-25T09:52:41;12.02;;;4.55;;
43626;SDS011;29217;52.586;13.442;2024-03-25T09:55:07;9.10;;;3.50;;
43626;SDS011;29217;52.586;13.442;2024-03-25T09:57:33;6.22;;;3.10;;
43626;SDS011;29217;52.586;13.442;2024-03-25T09:59:59;9.93;;;3.58;;
43626;SDS011;29217;52.586;13.442;2024-03-25T10:02:25;6.28;;;3.28;;
43626;SDS011;29217;52.586;13.442;2024-03-25T10:04:53;11.68;;;3.70;;
43626;SDS011;29217;52.586;13.442;2024-03-25T10:07:22;11.02;;;3.10;;
43626;SDS011;29217;52.586;13.442;2024-03-25T10:09:49;4.10;;;2.80;;
43626;SDS011;29217;52.586;13.442;2024-03-25T10:12:15;7.55;;;3.40;;
43626;SDS011;29217;52.586;13.442;2024-03-25T10:14:40;4.43;;;2.55;;
43626;SDS011;29217;52.586;13.442;2024-03-25T10:17:06;8.13;;;3.17;;
43626;SDS011;29217;52.586;13.442;2024-03-25T10:19:34;8.55;;;2.90;;
43626;SDS011;29217;52.586;13.442;2024-03-25T10:22:09;8.88;;;3.53;;
43626;SDS011;29217;52.586;13.442;2024-03-25T10:27:09;8.10;;;4.38;;
43626;SDS011;29217;52.586;13.442;2024-03-25T10:29:36;7.95;;;3.08;;
43626;SDS011;29217;52.586;13.442;2024-03-25T10:32:02;9.48;;;3.78;;
43626;SDS011;29217;52.586;13.442;2024-03-25T10:34:29;10.57;;;3.95;;
43626;SDS011;29217;52.586;13.442;2024-03-25T10:36:58;13.23;;;3.33;;
43626;SDS011;29217;52.586;13.442;2024-03-25T10:39:27;6.97;;;3.17;;
43626;SDS011;29217;52.586;13.442;2024-03-25T10:41:57;6.78;;;3.45;;
43626;SDS011;29217;52.586;13.442;2024-03-25T10:44:25;6.00;;;3.25;;
43626;SDS011;29217;52.586;13.442;2024-03-25T10:46:56;8.85;;;2.60;;
43626;SDS011;29217;52.586;13.442;2024-03-25T10:49:32;6.93;;;2.80;;
43626;SDS011;29217;52.586;13.442;2024-03-25T10:52:00;7.13;;;3.45;;
43626;SDS011;29217;52.586;13.442;2024-03-25T10:54:26;5.57;;;2.30;;
43626;SDS011;29217;52.586;13.442;2024-03-25T10:56:54;5.03;;;2.75;;
43626;SDS011;29217;52.586;13.442;2024-03-25T10:59:21;4.47;;;2.90;;
43626;SDS011;29217;52.586;13.442;2024-03-25T11:01:49;9.27;;;2.70;;
43626;SDS011;29217;52.586;13.442;2024-03-25T11:04:14;4.35;;;2.83;;
43626;SDS011;29217;52.586;13.442;2024-03-25T11:06:40;3.33;;;2.38;;
43626;SDS011;29217;52.586;13.442;2024-03-25T11:09:06;3.90;;;2.45;;
43626;SDS011;29217;52.586;13.442;2024-03-25T11:11:32;3.35;;;1.83;;
43626;SDS011;29217;52.586;13.442;2024-03-25T11:13:59;4.75;;;1.90;;
43626;SDS011;29217;52.586;13.442;2024-03-25T11:16:30;2.72;;;1.92;;
43626;SDS011;29217;52.586;13.442;2024-03-25T11:19:05;3.72;;;2.38;;
43626;SDS011;29217;52.586;13.442;2024-03-25T11:21:32;3.83;;;1.70;;
43626;SDS011;29217;52.586;13.442;2024-03-25T11:24:05;2.30;;;1.50;;
43626;SDS011;29217;52.586;13.442;2024-03-25T11:26:31;3.50;;;2.00;;
43626;SDS011;29217;52.586;13.442;2024-03-25T11:29:00;2.67;;;1.63;;
43626;SDS011;29217;52.586;13.442;2024-03-25T11:31:26;4.68;;;2.15;;
43626;SDS011;29217;52.586;13.442;2024-03-25T11:33:52;2.92;;;2.00;;
43626;SDS011;29217;52.586;13.442;2024-03-25T11:36:18;3.63;;;1.85;;
43626;SDS011;29217;52.586;13.442;2024-03-25T11:38:45;4.00;;;2.00;;
43626;SDS011;29217;52.586;13.442;2024-03-25T11:41:11;3.33;;;1.83;;
43626;SDS011;29217;52.586;13.442;2024-03-25T11:43:37;4.53;;;1.73;;
43626;SDS011;29217;52.586;13.442;2024-03-25T11:46:03;4.47;;;1.60;;
43626;SDS011;29217;52.586;13.442;2024-03-25T11:48:30;4.47;;;2.08;;
43626;SDS011;29217;52.586;13.442;2024-03-25T11:50:57;2.60;;;1.50;;
43626;SDS011;29217;52.586;13.442;2024-03-25T11:53:23;3.42;;;1.40;;
43626;SDS011;29217;52.586;13.442;2024-03-25T11:55:49;3.05;;;1.83;;
43626;SDS011;29217;52.586;13.442;2024-03-25T11:58:15;5.20;;;1.40;;
43626;SDS011;29217;52.586;13.442;2024-03-25T12:00:44;2.67;;;1.90;;
43626;SDS011;29217;52.586;13.442;2024-03-25T12:03:11;4.30;;;1.63;;
43626;SDS011;29217;52.586;13.442;2024-03-25T12:05:40;5.80;;;1.70;;
43626;SDS011;29217;52.586;13.442;2024-03-25T12:08:09;3.15;;;1.30;;
43626;SDS011;29217;52.586;13.442;2024-03-25T12:10:38;3.95;;;1.63;;
43626;SDS011;29217;52.586;13.442;2024-03-25T12:13:30;3.42;;;1.30;;
43626;SDS011;29217;52.586;13.442;2024-03-25T12:15:55;1.92;;;1.35;;
43626;SDS011;29217;52.586;13.442;2024-03-25T12:18:21;2.55;;;1.38;;
43626;SDS011;29217;52.586;13.442;2024-03-25T12:20:47;2.78;;;1.17;;
43626;SDS011;29217;52.586;13.442;2024-03-25T12:23:13;1.58;;;1.20;;
43626;SDS011;29217;52.586;13.442;2024-03-25T12:25:39;4.60;;;1.20;;
43626;SDS011;29217;52.586;13.442;2024-03-25T12:28:08;2.13;;;1.40;;
43626;SDS011;29217;52.586;13.442;2024-03-25T12:30:49;1.65;;;1.02;;
43626;SDS011;29217;52.586;13.442;2024-03-25T12:33:16;4.80;;;1.65;;
43626;SDS011;29217;52.586;13.442;2024-03-25T12:35:42;1.88;;;1.15;;
43626;SDS011;29217;52.586;13.442;2024-03-25T12:38:20;1.50;;;1.33;;
43626;SDS011;29217;52.586;13.442;2024-03-25T12:40:50;1.63;;;1.17;;
43626;SDS011;29217;52.586;13.442;2024-03-25T12:43:16;3.05;;;1.50;;
43626;SDS011;29217;52.586;13.442;2024-03-25T12:45:42;1.10;;;0.90;;
43626;SDS011;29217;52.586;13.442;2024-03-25T12:48:11;2.53;;;1.20;;
43626;SDS011;29217;52.586;13.442;2024-03-25T12:50:36;2.65;;;1.35;;
43626;SDS011;29217;52.586;13.442;2024-03-25T12:53:02;2.00;;;1.20;;
43626;SDS011;29217;52.586;13.442;2024-03-25T12:55:31;4.18;;;1.10;;
43626;SDS011;29217;52.586;13.442;2024-03-25T12:57:57;3.53;;;1.40;;
43626;SDS011;29217;52.586;13.442;2024-03-25T13:00:23;2.30;;;1.13;;
43626;SDS011;29217;52.586;13.442;2024-03-25T13:02:48;1.40;;;1.25;;
43626;SDS011;29217;52.586;13.442;2024-03-25T13:05:15;1.58;;;1.30;;
43626;SDS011;29217;52.586;13.442;2024-03-25T13:07:40;1.60;;;1.15;;
43626;SDS011;29217;52.586;13.442;2024-03-25T13:10:09;2.00;;;1.08;;
43626;SDS011;29217;52.586;13.442;2024-03-25T13:12:34;3.38;;;1.45;;
43626;SDS011;29217;52.586;13.442;2024-03-25T13:15:00;1.48;;;1.17;;
43626;SDS011;29217;52.586;13.442;2024-03-25T13:17:26;1.27;;;1.00;;
43626;SDS011;29217;52.586;13.442;2024-03-25T13:19:51;1.58;;;1.02;;
43626;SDS011;29217;52.586;13.442;2024-03-25T13:22:17;2.17;;;1.42;;
43626;SDS011;29217;52.586;13.442;2024-03-25T13:24:42;1.40;;;1.20;;
43626;SDS011;29217;52.586;13.442;2024-03-25T13:27:08;1.38;;;1.27;;
43626;SDS011;29217;52.586;13.442;2024-03-25T13:29:33;1.92;;;1.33;;
43626;SDS011;29217;52.586;13.442;2024-03-25T13:32:02;2.42;;;1.48;;
43626;SDS011;29217;52.586;13.442;2024-03-25T13:34:28;1.67;;;1.08;;
43626;SDS011;29217;52.586;13.442;2024-03-25T13:36:53;3.17;;;1.15;;
43626;SDS011;29217;52.586;13.442;2024-03-25T13:39:19;1.33;;;1.15;;
43626;SDS011;29217;52.586;13.442;2024-03-25T13:41:44;1.88;;;1.00;;
43626;SDS011;29217;52.586;13.442;2024-03-25T13:44:10;1.70;;;1.20;;
43626;SDS011;29217;52.586;13.442;2024-03-25T13:46:36;1.98;;;1.20;;
43626;SDS011;29217;52.586;13.442;2024-03-25T13:49:02;6.90;;;1.33;;
43626;SDS011;29217;52.586;13.442;2024-03-25T13:51:27;4.30;;;1.25;;
43626;SDS011;29217;52.586;13.442;2024-03-25T13:53:53;2.38;;;1.67;;
43626;SDS011;29217;52.586;13.442;2024-03-25T13:56:19;1.90;;;1.33;;
43626;SDS011;29217;52.586;13.442;2024-03-25T13:58:44;2.53;;;1.13;;
43626;SDS011;29217;52.586;13.442;2024-03-25T14:01:10;3.30;;;1.20;;
43626;SDS011;29217;52.586;13.442;2024-03-25T14:03:35;2.28;;;1.20;;
43626;SDS011;29217;52.586;13.442;2024-03-25T14:06:01;4.82;;;1.10;;
43626;SDS011;29217;52.586;13.442;2024-03-25T14:08:27;5.38;;;1.23;;
43626;SDS011;29217;52.586;13.442;2024-03-25T14:11:02;2.30;;;1.20;;
43626;SDS011;29217;52.586;13.442;2024-03-25T14:13:28;1.27;;;0.90;;
43626;SDS011;29217;52.586;13.442;2024-03-25T14:15:54;0.98;;;0.90;;
43626;SDS011;29217;52.586;13.442;2024-03-25T14:18:20;2.55;;;1.10;;
43626;SDS011;29217;52.586;13.442;2024-03-25T14:20:45;1.58;;;1.27;;
43626;SDS011;29217;52.586;13.442;2024-03-25T14:23:11;1.30;;;1.20;;
43626;SDS011;29217;52.586;13.442;2024-03-25T14:25:37;2.20;;;1.15;;
43626;SDS011;29217;52.586;13.442;2024-03-25T14:28:03;2.35;;;1.15;;
43626;SDS011;29217;52.586;13.442;2024-03-25T14:30:29;1.90;;;1.27;;
43626;SDS011;29217;52.586;13.442;2024-03-25T14:32:54;2.20;;;1.42;;
43626;SDS011;29217;52.586;13.442;2024-03-25T14:35:20;7.22;;;1.50;;
43626;SDS011;29217;52.586;13.442;2024-03-25T14:37:46;7.15;;;2.28;;